Flight Track Log - Related Links

Times and Time Zones

All times are in EDT time to prevent confusion due to time zone crossing. See the ADR705 flight status page for this flight to view local times or setup timezone preferences in your user account.

Time Position Orientation Groundspeed Altitude Reporting Facility
EDT Latitude Longitude Course Direction KTS MPH feet Rate Location/Type
Tue 09:58:00 AM 42.4849 18.6418 324° Northwest  Level Estimated
Tue 09:59:00 AM 42.5736 18.5503 323° Northwest  Level Estimated
Tue 10:00:00 AM 42.6623 18.4585 323° Northwest  Level Estimated
Tue 10:01:00 AM 42.7508 18.3664 323° Northwest  Level Estimated
Tue 10:02:00 AM 42.8393 18.2740 323° Northwest  Level Estimated
Tue 10:03:00 AM 42.9277 18.1814 323° Northwest  Level Estimated
Tue 10:04:00 AM 43.0161 18.0886 322° Northwest  Level Estimated
Tue 10:05:00 AM 43.1044 17.9954 322° Northwest  Level Estimated
Tue 10:06:00 AM 43.1926 17.9020 322° Northwest  Level Estimated
Tue 10:07:00 AM 43.2807 17.8084 322° Northwest  Level Estimated
Tue 10:08:00 AM 43.3687 17.7144 322° Northwest  Level Estimated
Tue 10:09:00 AM 43.4567 17.6202 322° Northwest  Level Estimated
Tue 10:10:00 AM 43.5446 17.5257 322° Northwest  Level Estimated
Tue 10:11:00 AM 43.6324 17.4309 322° Northwest  Level Estimated
Tue 10:12:00 AM 43.7201 17.3359 322° Northwest  Level Estimated
Tue 10:13:00 AM 43.8078 17.2406 322° Northwest  Level Estimated
Tue 10:14:00 AM 43.8953 17.1450 322° Northwest  Level Estimated
Tue 10:15:00 AM 43.9828 17.0491 322° Northwest  Level Estimated
Tue 10:16:00 AM 44.0702 16.9529 322° Northwest  Level Estimated
Tue 10:17:00 AM 44.1576 16.8565 322° Northwest  Level Estimated
Tue 10:18:00 AM 44.2448 16.7597 322° Northwest  Level Estimated
Tue 10:19:00 AM 44.3320 16.6627 321° Northwest  Level Estimated
Tue 10:20:00 AM 44.4191 16.5654 321° Northwest  Level Estimated
Tue 10:21:00 AM 44.5061 16.4678 321° Northwest  Level Estimated
Tue 10:22:00 AM 44.5930 16.3699 321° Northwest  Level Estimated
Tue 10:23:00 AM 44.6798 16.2717 321° Northwest  Level Estimated
Tue 10:24:00 AM 44.7666 16.1732 321° Northwest  Level Estimated
Tue 10:25:00 AM 44.8533 16.0744 321° Northwest  Level Estimated
Tue 10:26:00 AM 44.9398 15.9753 321° Northwest  Level Estimated
Tue 10:27:00 AM 45.0263 15.8760 321° Northwest  Level Estimated
Tue 10:28:00 AM 45.1127 15.7763 321° Northwest  Level Estimated
Tue 10:29:00 AM 45.1991 15.6763 321° Northwest  Level Estimated
Tue 10:30:00 AM 45.2853 15.5760 321° Northwest  Level Estimated
Tue 10:31:00 AM 45.3714 15.4754 321° Northwest  Level Estimated
Tue 10:32:00 AM 45.4575 15.3745 321° Northwest  Level Estimated
Tue 10:33:00 AM 45.5435 15.2733 321° Northwest  Level Estimated
Tue 10:34:00 AM 45.6293 15.1718 320° Northwest  Level Estimated
Tue 10:35:00 AM 45.7151 15.0700 320° Northwest  Level Estimated
Tue 10:36:00 AM 45.8008 14.9678 320° Northwest  Level Estimated
Tue 10:37:00 AM 45.8865 14.8654 320° Northwest  Level Estimated
Tue 10:38:00 AM 45.9720 14.7626 320° Northwest  Level Estimated
Tue 10:39:00 AM 46.0574 14.6595 320° Northwest  Level Estimated
Tue 10:40:00 AM 46.1427 14.5561 320° Northwest  Level Estimated
Tue 10:41:00 AM 46.2237 14.4576 320° Northwest  Level Estimated
Tue 10:42:00 AM 46.2237 14.4576 North  Level Estimated
Tue 10:43:00 AM 46.2237 14.4576 North  Level Estimated
Tue 10:44:00 AM 46.2237 14.4576 North  Level Estimated
Tue 10:45:00 AM 46.2237 14.4576 North  Level Estimated
Tue 10:46:00 AM 46.2237 14.4576 North  Level Estimated
Tue 10:47:00 AM 46.2237 14.4576 North  Level Estimated
Tue 10:48:00 AM 46.2237 14.4576 North  Level Estimated
Tue 10:49:00 AM 46.2237 14.4576 North  Level Estimated
Tue 10:50:00 AM 46.2237 14.4576 North  Level Estimated
Tue 10:51:00 AM 46.2237 14.4576 North  Level Estimated
Tue 10:52:00 AM 46.2237 14.4576 North  Level Estimated
Tue 10:53:00 AM 46.2237 14.4576 North  Level Estimated
Tue 10:54:00 AM 46.2237 14.4576 North  Level Estimated

Login

Don't have an account? Register now (free) for customized features, flight alerts, and more!